Overland, Kansas
Current Conditions -  °F | °C
As of 7:03 AM on Saturday 25 Oct 2014 (Local Time) from KMKC Reporting Station
Moderate Fog Moderate Fog  
Wind Chill: 54°   Ceiling: 200
Heat Index: 54°   Visibility: 0.25mi
Dew Point: 54°   Wind: 0mph
Humidity: 100%   Direction: NA
Pressure: 30.04"   Gusts: NA
Location:  39.0213°N, 94.7068°W
Report Text: KMKC 251203Z 00000KT 1/4SM FG VV002 12/12 A3004 RMK AO2 T01220122
Loading
Personal Weather Stations






























Interactive Weather Map
Tropical Storm Tracking
New forecast layout! Learn more

10-Day Weather Forecast

Advertisements
Track Severe Weather on mobile